Hlavní strana
METAR-TAF:

METAR-TAF

Letiště :

Mae Hong Son, Thajsko

zeměpisná šířka: 19-18N, zeměpisná délka: 097-50E, výška: 267 m

Aktuální stav počasí

Zpráva byla vytvořena před 24 minutami, v 12:00 UTC
Severovýchodní vítr 3 kt
Teplota 29°C
Vlhkost vzduchu 66%
Tlak 1005 hPa
Viditelnost 10 km a více
Skoro jasno ve výšce 2000 ft, Cumulonimbus.
Oblačno až skoro zataženo ve výšce 2500 ft
bouřka, slabý déšť

METAR: VTCH 041200Z 05003KT 9999 -TSRA FEW020CB BKN025 29/22 Q1005 RERA

Čas: 19:24 (12:24 UTC)

Předpověď počasí

Zpráva byla vytvořena před 1 hodinou a 24 minutami, v 11:00 UTC
Předpověď platná od 04 v 12 UTC do 05 v 12 UTC
Jihozápadní vítr 5 kt
Viditelnost 10 km a více
Polojasno ve výšce 2500 ft
Dočasný
od 04 v 12 UTC do 04 v 14 UTC
Západojihozápadní vítr 15 kt s nárazy do 25 kt
Viditelnost: 4000 m
Skoro jasno ve výšce 2000 ft, Cumulonimbus.
Oblačno až skoro zataženo ve výšce 2500 ft
bouřka, déšť

TAF: VTCH 041100Z 0412/0512 22005KT 9999 SCT025 TEMPO 0412/0414 24015G25KT 4000 TSRA FEW020CB BKN025

Stav a předpovědi počasí z více než 4 000 letišť (zprávy METAR a TAF).

Červené a žluté tečky na mapě představují dostupné meteorologické stanice.

Když kurzor umístíte na tečku, zobrazí se název stanice.

Pak kliknutím zobrazíte stav a předpověď počasí.

Chcete-li změnit mapu, kliknutím na zelené tlačítko se znaménkem +mapu přiblížíte, kliknutím na zelené tlačítko se znaménkem – mapu oddálíte a kliknutím na zelené šipky přejdete na sousední mapy.


METAR-TAF: